sensor_id;sensor_type;location;lat;lon;timestamp;pressure;altitude;pressure_sealevel;temperature;humidity
5595;BME280;1003;48.002;7.788;2024-02-26T00:00:23;97340.81;;;8.49;100.00
5595;BME280;1003;48.002;7.788;2024-02-26T00:02:50;97344.38;;;8.41;100.00
5595;BME280;1003;48.002;7.788;2024-02-26T00:05:17;97340.44;;;8.33;100.00
5595;BME280;1003;48.002;7.788;2024-02-26T00:07:44;97344.81;;;8.26;100.00
5595;BME280;1003;48.002;7.788;2024-02-26T00:10:13;97336.75;;;8.16;100.00
5595;BME280;1003;48.002;7.788;2024-02-26T00:12:40;97340.22;;;8.12;100.00
5595;BME280;1003;48.002;7.788;2024-02-26T00:15:09;97338.56;;;8.13;100.00
5595;BME280;1003;48.002;7.788;2024-02-26T00:17:37;97328.75;;;8.05;100.00
5595;BME280;1003;48.002;7.788;2024-02-26T00:20:06;97315.69;;;7.97;100.00
5595;BME280;1003;48.002;7.788;2024-02-26T00:22:35;97305.06;;;7.89;100.00
5595;BME280;1003;48.002;7.788;2024-02-26T00:25:05;97283.50;;;7.85;100.00
5595;BME280;1003;48.002;7.788;2024-02-26T00:27:32;97276.97;;;7.81;100.00
5595;BME280;1003;48.002;7.788;2024-02-26T00:29:59;97266.09;;;7.82;100.00
5595;BME280;1003;48.002;7.788;2024-02-26T00:32:26;97266.00;;;7.85;100.00
5595;BME280;1003;48.002;7.788;2024-02-26T00:34:54;97249.47;;;7.81;100.00
5595;BME280;1003;48.002;7.788;2024-02-26T00:37:21;97253.78;;;7.76;100.00
5595;BME280;1003;48.002;7.788;2024-02-26T00:39:48;97248.97;;;7.70;100.00
5595;BME280;1003;48.002;7.788;2024-02-26T00:42:15;97244.88;;;7.67;100.00
5595;BME280;1003;48.002;7.788;2024-02-26T00:44:42;97236.75;;;7.60;100.00
5595;BME280;1003;48.002;7.788;2024-02-26T00:47:09;97234.38;;;7.56;100.00
5595;BME280;1003;48.002;7.788;2024-02-26T00:49:37;97227.88;;;7.50;100.00
5595;BME280;1003;48.002;7.788;2024-02-26T00:52:05;97221.44;;;7.42;100.00
5595;BME280;1003;48.002;7.788;2024-02-26T00:54:32;97213.31;;;7.35;100.00
5595;BME280;1003;48.002;7.788;2024-02-26T00:56:59;97210.19;;;7.28;100.00
5595;BME280;1003;48.002;7.788;2024-02-26T00:59:26;97197.09;;;7.20;100.00
5595;BME280;1003;48.002;7.788;2024-02-26T01:01:53;97186.56;;;7.10;100.00
5595;BME280;1003;48.002;7.788;2024-02-26T01:04:20;97182.56;;;7.03;100.00
5595;BME280;1003;48.002;7.788;2024-02-26T01:06:47;97166.09;;;6.98;100.00
5595;BME280;1003;48.002;7.788;2024-02-26T01:09:15;97168.47;;;7.02;100.00
5595;BME280;1003;48.002;7.788;2024-02-26T01:11:43;97152.59;;;7.03;100.00
5595;BME280;1003;48.002;7.788;2024-02-26T01:14:10;97154.34;;;7.01;100.00
5595;BME280;1003;48.002;7.788;2024-02-26T01:16:37;97145.97;;;7.02;100.00
5595;BME280;1003;48.002;7.788;2024-02-26T01:19:05;97146.81;;;7.03;100.00
5595;BME280;1003;48.002;7.788;2024-02-26T01:21:32;97130.13;;;7.03;100.00
5595;BME280;1003;48.002;7.788;2024-02-26T01:23:58;97126.81;;;7.03;100.00
5595;BME280;1003;48.002;7.788;2024-02-26T01:26:27;97128.44;;;7.04;100.00
5595;BME280;1003;48.002;7.788;2024-02-26T01:28:54;97131.06;;;6.99;100.00
5595;BME280;1003;48.002;7.788;2024-02-26T01:31:21;97125.25;;;7.00;100.00
5595;BME280;1003;48.002;7.788;2024-02-26T01:33:48;97125.38;;;6.96;100.00
5595;BME280;1003;48.002;7.788;2024-02-26T01:36:15;97118.94;;;7.17;100.00
5595;BME280;1003;48.002;7.788;2024-02-26T01:38:42;97116.47;;;7.15;100.00
5595;BME280;1003;48.002;7.788;2024-02-26T01:41:09;97118.97;;;7.15;100.00
5595;BME280;1003;48.002;7.788;2024-02-26T01:43:37;97105.75;;;7.12;100.00
5595;BME280;1003;48.002;7.788;2024-02-26T01:46:04;97099.91;;;7.13;100.00
5595;BME280;1003;48.002;7.788;2024-02-26T01:48:31;97099.91;;;7.13;100.00
5595;BME280;1003;48.002;7.788;2024-02-26T01:50:58;97088.22;;;7.13;100.00
5595;BME280;1003;48.002;7.788;2024-02-26T01:53:26;97083.16;;;7.16;100.00
5595;BME280;1003;48.002;7.788;2024-02-26T01:55:53;97074.78;;;7.17;100.00
5595;BME280;1003;48.002;7.788;2024-02-26T01:58:20;97066.44;;;7.18;100.00
5595;BME280;1003;48.002;7.788;2024-02-26T02:00:49;97067.28;;;7.17;100.00
5595;BME280;1003;48.002;7.788;2024-02-26T02:03:16;97048.19;;;7.16;100.00
5595;BME280;1003;48.002;7.788;2024-02-26T02:05:44;97051.44;;;7.18;100.00
5595;BME280;1003;48.002;7.788;2024-02-26T02:08:11;97034.50;;;7.28;100.00
5595;BME280;1003;48.002;7.788;2024-02-26T02:10:39;97035.09;;;7.34;100.00
5595;BME280;1003;48.002;7.788;2024-02-26T02:13:06;97016.69;;;7.37;100.00
5595;BME280;1003;48.002;7.788;2024-02-26T02:15:33;97011.50;;;7.43;100.00
5595;BME280;1003;48.002;7.788;2024-02-26T02:18:01;97017.72;;;7.56;100.00
5595;BME280;1003;48.002;7.788;2024-02-26T02:20:34;97005.91;;;7.61;100.00
5595;BME280;1003;48.002;7.788;2024-02-26T02:23:01;97004.97;;;7.64;100.00
5595;BME280;1003;48.002;7.788;2024-02-26T02:25:29;96998.13;;;7.69;100.00
5595;BME280;1003;48.002;7.788;2024-02-26T02:27:56;96996.28;;;7.99;100.00
5595;BME280;1003;48.002;7.788;2024-02-26T02:30:28;96988.41;;;8.10;100.00
5595;BME280;1003;48.002;7.788;2024-02-26T02:32:57;96990.25;;;8.05;100.00
5595;BME280;1003;48.002;7.788;2024-02-26T02:35:25;96984.19;;;8.10;100.00
5595;BME280;1003;48.002;7.788;2024-02-26T02:37:55;96979.09;;;8.13;100.00
5595;BME280;1003;48.002;7.788;2024-02-26T02:40:22;96985.50;;;8.21;100.00
5595;BME280;1003;48.002;7.788;2024-02-26T02:42:49;96975.56;;;8.19;100.00
5595;BME280;1003;48.002;7.788;2024-02-26T02:45:16;96976.31;;;8.21;100.00
5595;BME280;1003;48.002;7.788;2024-02-26T02:47:43;96980.78;;;8.13;100.00
5595;BME280;1003;48.002;7.788;2024-02-26T02:50:10;96981.00;;;8.07;100.00
5595;BME280;1003;48.002;7.788;2024-02-26T02:52:37;96976.03;;;8.05;100.00
5595;BME280;1003;48.002;7.788;2024-02-26T02:55:06;96976.97;;;8.03;100.00
5595;BME280;1003;48.002;7.788;2024-02-26T02:57:33;96982.16;;;7.98;100.00
5595;BME280;1003;48.002;7.788;2024-02-26T03:00:08;96983.25;;;7.91;100.00
5595;BME280;1003;48.002;7.788;2024-02-26T03:02:36;96979.16;;;7.88;100.00
5595;BME280;1003;48.002;7.788;2024-02-26T03:05:04;96985.84;;;7.88;100.00
5595;BME280;1003;48.002;7.788;2024-02-26T03:07:31;96989.97;;;7.89;100.00
5595;BME280;1003;48.002;7.788;2024-02-26T03:09:58;96994.31;;;7.84;100.00
5595;BME280;1003;48.002;7.788;2024-02-26T03:12:26;96993.78;;;7.74;100.00
5595;BME280;1003;48.002;7.788;2024-02-26T03:14:53;97000.75;;;7.66;100.00
5595;BME280;1003;48.002;7.788;2024-02-26T03:17:20;96991.06;;;7.57;100.00
5595;BME280;1003;48.002;7.788;2024-02-26T03:19:50;96995.50;;;7.49;100.00
5595;BME280;1003;48.002;7.788;2024-02-26T03:22:19;97006.53;;;7.43;100.00
5595;BME280;1003;48.002;7.788;2024-02-26T03:24:46;97013.44;;;7.35;100.00
5595;BME280;1003;48.002;7.788;2024-02-26T03:27:13;97014.31;;;7.34;100.00
5595;BME280;1003;48.002;7.788;2024-02-26T03:29:41;97000.19;;;7.33;100.00
5595;BME280;1003;48.002;7.788;2024-02-26T03:32:09;97004.41;;;7.31;100.00
5595;BME280;1003;48.002;7.788;2024-02-26T03:34:35;97004.38;;;7.32;100.00
5595;BME280;1003;48.002;7.788;2024-02-26T03:37:05;97006.94;;;7.29;100.00
5595;BME280;1003;48.002;7.788;2024-02-26T03:39:33;97006.22;;;7.26;100.00
5595;BME280;1003;48.002;7.788;2024-02-26T03:42:00;97004.59;;;7.25;100.00
5595;BME280;1003;48.002;7.788;2024-02-26T03:44:27;97004.72;;;7.22;100.00
5595;BME280;1003;48.002;7.788;2024-02-26T03:46:56;97004.75;;;7.20;100.00
5595;BME280;1003;48.002;7.788;2024-02-26T03:49:22;96983.94;;;7.20;100.00
5595;BME280;1003;48.002;7.788;2024-02-26T03:51:49;96984.06;;;7.17;100.00
5595;BME280;1003;48.002;7.788;2024-02-26T03:54:16;96916.75;;;7.12;100.00
5595;BME280;1003;48.002;7.788;2024-02-26T03:56:43;96822.75;;;7.09;100.00
5595;BME280;1003;48.002;7.788;2024-02-26T03:59:10;96807.13;;;7.04;100.00
5595;BME280;1003;48.002;7.788;2024-02-26T04:01:37;96793.88;;;7.02;100.00
5595;BME280;1003;48.002;7.788;2024-02-26T04:04:06;96790.66;;;6.99;100.00
5595;BME280;1003;48.002;7.788;2024-02-26T04:06:33;96787.41;;;6.97;100.00
5595;BME280;1003;48.002;7.788;2024-02-26T04:09:00;96794.09;;;6.96;100.00
5595;BME280;1003;48.002;7.788;2024-02-26T04:11:29;96794.91;;;6.97;100.00
5595;BME280;1003;48.002;7.788;2024-02-26T04:13:56;96784.03;;;6.98;100.00
5595;BME280;1003;48.002;7.788;2024-02-26T04:16:23;96768.53;;;6.90;100.00
5595;BME280;1003;48.002;7.788;2024-02-26T04:18:50;96753.63;;;6.87;100.00
5595;BME280;1003;48.002;7.788;2024-02-26T04:21:20;96759.75;;;6.78;100.00
5595;BME280;1003;48.002;7.788;2024-02-26T04:23:47;96748.25;;;6.74;100.00
5595;BME280;1003;48.002;7.788;2024-02-26T04:26:14;96735.94;;;6.69;100.00
5595;BME280;1003;48.002;7.788;2024-02-26T04:28:41;96714.28;;;6.70;100.00
5595;BME280;1003;48.002;7.788;2024-02-26T04:31:08;96703.44;;;6.71;100.00
5595;BME280;1003;48.002;7.788;2024-02-26T04:33:35;96708.38;;;6.72;100.00
5595;BME280;1003;48.002;7.788;2024-02-26T04:36:03;96705.06;;;6.72;100.00
5595;BME280;1003;48.002;7.788;2024-02-26T04:38:31;96688.38;;;6.74;100.00
5595;BME280;1003;48.002;7.788;2024-02-26T04:40:58;96681.69;;;6.74;100.00
5595;BME280;1003;48.002;7.788;2024-02-26T04:43:25;96681.69;;;6.74;100.00
5595;BME280;1003;48.002;7.788;2024-02-26T04:45:51;96673.31;;;6.75;100.00
5595;BME280;1003;48.002;7.788;2024-02-26T04:48:18;96667.47;;;6.76;100.00
5595;BME280;1003;48.002;7.788;2024-02-26T04:50:45;96666.50;;;6.80;100.00
5595;BME280;1003;48.002;7.788;2024-02-26T04:53:12;96662.31;;;6.81;100.00
5595;BME280;1003;48.002;7.788;2024-02-26T04:55:41;96661.50;;;6.80;100.00
5595;BME280;1003;48.002;7.788;2024-02-26T04:58:08;96648.28;;;6.78;100.00
5595;BME280;1003;48.002;7.788;2024-02-26T05:00:34;96645.81;;;6.77;100.00
5595;BME280;1003;48.002;7.788;2024-02-26T05:03:01;96641.59;;;6.79;100.00
5595;BME280;1003;48.002;7.788;2024-02-26T05:05:29;96641.53;;;6.80;100.00
5595;BME280;1003;48.002;7.788;2024-02-26T05:07:57;96631.47;;;6.82;100.00
5595;BME280;1003;48.002;7.788;2024-02-26T05:10:24;96629.78;;;6.82;100.00
5595;BME280;1003;48.002;7.788;2024-02-26T05:12:52;96647.44;;;6.78;100.00
5595;BME280;1003;48.002;7.788;2024-02-26T05:15:19;96643.28;;;6.78;100.00
5595;BME280;1003;48.002;7.788;2024-02-26T05:17:46;96648.31;;;6.77;100.00
5595;BME280;1003;48.002;7.788;2024-02-26T05:20:13;96630.84;;;6.77;100.00
5595;BME280;1003;48.002;7.788;2024-02-26T05:22:40;96634.19;;;6.76;100.00
5595;BME280;1003;48.002;7.788;2024-02-26T05:25:08;96630.91;;;6.75;100.00
5595;BME280;1003;48.002;7.788;2024-02-26T05:27:35;96628.63;;;6.69;100.00
5595;BME280;1003;48.002;7.788;2024-02-26T05:30:05;96626.13;;;6.69;100.00
5595;BME280;1003;48.002;7.788;2024-02-26T05:32:32;96628.72;;;6.66;100.00
5595;BME280;1003;48.002;7.788;2024-02-26T05:34:59;96621.22;;;6.66;100.00
5595;BME280;1003;48.002;7.788;2024-02-26T05:37:26;96627.00;;;6.68;100.00
5595;BME280;1003;48.002;7.788;2024-02-26T05:39:53;96634.50;;;6.68;100.00
5595;BME280;1003;48.002;7.788;2024-02-26T05:42:20;96622.97;;;6.64;100.00
5595;BME280;1003;48.002;7.788;2024-02-26T05:44:46;96628.03;;;6.63;100.00
5595;BME280;1003;48.002;7.788;2024-02-26T05:47:15;96629.75;;;6.61;100.00
5595;BME280;1003;48.002;7.788;2024-02-26T05:49:43;96624.75;;;6.61;100.00
5595;BME280;1003;48.002;7.788;2024-02-26T05:52:09;96623.94;;;6.60;100.00
5595;BME280;1003;48.002;7.788;2024-02-26T05:54:36;96628.03;;;6.63;100.00
5595;BME280;1003;48.002;7.788;2024-02-26T05:57:04;96629.53;;;6.67;100.00
5595;BME280;1003;48.002;7.788;2024-02-26T05:59:31;96634.50;;;6.68;100.00
5595;BME280;1003;48.002;7.788;2024-02-26T06:01:58;96634.19;;;6.76;100.00
5595;BME280;1003;48.002;7.788;2024-02-26T06:04:26;96629.69;;;6.86;100.00
5595;BME280;1003;48.002;7.788;2024-02-26T06:06:53;96633.66;;;6.91;100.00
5595;BME280;1003;48.002;7.788;2024-02-26T06:09:20;96644.34;;;6.95;100.00
5595;BME280;1003;48.002;7.788;2024-02-26T06:11:49;96640.84;;;6.99;100.00
5595;BME280;1003;48.002;7.788;2024-02-26T06:14:15;96637.31;;;7.04;100.00
5595;BME280;1003;48.002;7.788;2024-02-26T06:16:44;96645.50;;;7.08;100.00
5595;BME280;1003;48.002;7.788;2024-02-26T06:19:11;96637.78;;;7.14;100.00
5595;BME280;1003;48.002;7.788;2024-02-26T06:21:39;96642.56;;;7.20;100.00
5595;BME280;1003;48.002;7.788;2024-02-26T06:24:06;96633.16;;;7.27;100.00
5595;BME280;1003;48.002;7.788;2024-02-26T06:26:33;96630.53;;;7.30;100.00
5595;BME280;1003;48.002;7.788;2024-02-26T06:29:00;96621.31;;;7.32;100.00
5595;BME280;1003;48.002;7.788;2024-02-26T06:31:26;96626.00;;;7.40;100.00
5595;BME280;1003;48.002;7.788;2024-02-26T06:33:55;96626.72;;;7.43;100.00
5595;BME280;1003;48.002;7.788;2024-02-26T06:36:22;96622.22;;;7.51;100.00
5595;BME280;1003;48.002;7.788;2024-02-26T06:38:50;96611.34;;;7.52;100.00
5595;BME280;1003;48.002;7.788;2024-02-26T06:41:19;96611.22;;;7.55;100.00
5595;BME280;1003;48.002;7.788;2024-02-26T06:43:46;96601.97;;;7.57;100.00
5595;BME280;1003;48.002;7.788;2024-02-26T06:46:14;96606.06;;;7.60;100.00
5595;BME280;1003;48.002;7.788;2024-02-26T06:48:41;96607.50;;;7.66;100.00
5595;BME280;1003;48.002;7.788;2024-02-26T06:51:08;96609.84;;;7.69;100.00
5595;BME280;1003;48.002;7.788;2024-02-26T06:53:35;96613.78;;;7.74;100.00
5595;BME280;1003;48.002;7.788;2024-02-26T06:56:04;96608.50;;;7.82;100.00
5595;BME280;1003;48.002;7.788;2024-02-26T06:58:31;96612.31;;;7.90;100.00
5595;BME280;1003;48.002;7.788;2024-02-26T07:00:58;96618.00;;;7.94;100.00
5595;BME280;1003;48.002;7.788;2024-02-26T07:03:25;96625.44;;;7.96;100.00
5595;BME280;1003;48.002;7.788;2024-02-26T07:05:52;96628.00;;;7.94;100.00
5595;BME280;1003;48.002;7.788;2024-02-26T07:08:19;96645.41;;;7.97;100.00
5595;BME280;1003;48.002;7.788;2024-02-26T07:10:50;96657.91;;;7.97;100.00
5595;BME280;1003;48.002;7.788;2024-02-26T07:13:19;96667.91;;;7.97;100.00
5595;BME280;1003;48.002;7.788;2024-02-26T07:15:46;96682.13;;;7.95;100.00
5595;BME280;1003;48.002;7.788;2024-02-26T07:18:13;96709.53;;;7.98;100.00
5595;BME280;1003;48.002;7.788;2024-02-26T07:20:40;96724.19;;;8.07;100.00
5595;BME280;1003;48.002;7.788;2024-02-26T07:23:07;96740.50;;;8.16;100.00
5595;BME280;1003;48.002;7.788;2024-02-26T07:25:34;96754.16;;;8.29;100.00
5595;BME280;1003;48.002;7.788;2024-02-26T07:28:01;96771.44;;;8.35;100.00
5595;BME280;1003;48.002;7.788;2024-02-26T07:30:29;96783.53;;;8.46;100.00
5595;BME280;1003;48.002;7.788;2024-02-26T07:32:56;96803.56;;;8.46;100.00
5595;BME280;1003;48.002;7.788;2024-02-26T07:35:23;96828.28;;;8.54;100.00
5595;BME280;1003;48.002;7.788;2024-02-26T07:37:50;96846.50;;;8.57;100.00
5595;BME280;1003;48.002;7.788;2024-02-26T07:40:17;96856.78;;;8.72;100.00
5595;BME280;1003;48.002;7.788;2024-02-26T07:43:03;96877.06;;;8.86;100.00
5595;BME280;1003;48.002;7.788;2024-02-26T07:45:36;96886.41;;;9.03;100.00
5595;BME280;1003;48.002;7.788;2024-02-26T07:48:14;96898.81;;;9.06;100.00
5595;BME280;1003;48.002;7.788;2024-02-26T07:50:45;96932.56;;;9.17;100.00
5595;BME280;1003;48.002;7.788;2024-02-26T07:53:13;96961.53;;;9.25;100.00
5595;BME280;1003;48.002;7.788;2024-02-26T07:55:40;96974.75;;;9.28;100.00
5595;BME280;1003;48.002;7.788;2024-02-26T07:58:07;96996.06;;;9.38;100.00
5595;BME280;1003;48.002;7.788;2024-02-26T08:00:36;97013.44;;;9.43;100.00
5595;BME280;1003;48.002;7.788;2024-02-26T08:03:03;97017.00;;;9.37;100.00
5595;BME280;1003;48.002;7.788;2024-02-26T08:05:30;97008.16;;;9.49;100.00
5595;BME280;1003;48.002;7.788;2024-02-26T08:07:57;97025.53;;;9.54;100.00
5595;BME280;1003;48.002;7.788;2024-02-26T08:10:24;97096.38;;;9.79;100.00
5595;BME280;1003;48.002;7.788;2024-02-26T08:12:51;97106.38;;;10.01;100.00
5595;BME280;1003;48.002;7.788;2024-02-26T08:15:18;97110.00;;;10.14;100.00
5595;BME280;1003;48.002;7.788;2024-02-26T08:17:46;97119.97;;;10.36;100.00
5595;BME280;1003;48.002;7.788;2024-02-26T08:20:14;97126.84;;;10.51;100.00
5595;BME280;1003;48.002;7.788;2024-02-26T08:22:41;97123.81;;;10.64;100.00
5595;BME280;1003;48.002;7.788;2024-02-26T08:25:09;97129.13;;;10.76;100.00
5595;BME280;1003;48.002;7.788;2024-02-26T08:27:36;97129.03;;;10.97;100.00
5595;BME280;1003;48.002;7.788;2024-02-26T08:30:04;97127.34;;;10.97;100.00
5595;BME280;1003;48.002;7.788;2024-02-26T08:32:31;97133.25;;;10.96;100.00
5595;BME280;1003;48.002;7.788;2024-02-26T08:35:00;97146.09;;;10.90;100.00
5595;BME280;1003;48.002;7.788;2024-02-26T08:37:27;97151.81;;;11.13;100.00
5595;BME280;1003;48.002;7.788;2024-02-26T08:39:54;97161.84;;;11.32;100.00
5595;BME280;1003;48.002;7.788;2024-02-26T08:42:21;97170.78;;;11.56;100.00
5595;BME280;1003;48.002;7.788;2024-02-26T08:44:49;97169.13;;;11.74;100.00
5595;BME280;1003;48.002;7.788;2024-02-26T08:47:16;97170.19;;;12.04;100.00
5595;BME280;1003;48.002;7.788;2024-02-26T08:49:45;97174.13;;;12.27;100.00
5595;BME280;1003;48.002;7.788;2024-02-26T08:52:13;97180.03;;;12.44;100.00
5595;BME280;1003;48.002;7.788;2024-02-26T08:54:41;97178.09;;;12.31;100.00
5595;BME280;1003;48.002;7.788;2024-02-26T08:57:08;97186.84;;;12.24;100.00
5595;BME280;1003;48.002;7.788;2024-02-26T08:59:35;97205.16;;;12.28;100.00
5595;BME280;1003;48.002;7.788;2024-02-26T09:02:02;97214.16;;;12.32;100.00
5595;BME280;1003;48.002;7.788;2024-02-26T09:04:29;97206.47;;;12.35;100.00
5595;BME280;1003;48.002;7.788;2024-02-26T09:06:56;97214.25;;;12.30;100.00
5595;BME280;1003;48.002;7.788;2024-02-26T09:09:24;97228.94;;;12.22;100.00
5595;BME280;1003;48.002;7.788;2024-02-26T09:11:52;97234.28;;;12.16;100.00
5595;BME280;1003;48.002;7.788;2024-02-26T09:14:20;97231.28;;;11.91;100.00
5595;BME280;1003;48.002;7.788;2024-02-26T09:16:47;97247.53;;;11.65;100.00
5595;BME280;1003;48.002;7.788;2024-02-26T09:19:14;97254.19;;;11.66;100.00
5595;BME280;1003;48.002;7.788;2024-02-26T09:21:43;97259.63;;;11.75;100.00
5595;BME280;1003;48.002;7.788;2024-02-26T09:24:10;97259.63;;;11.75;100.00
5595;BME280;1003;48.002;7.788;2024-02-26T09:26:38;97260.25;;;11.80;100.00
5595;BME280;1003;48.002;7.788;2024-02-26T09:29:04;97254.22;;;11.85;100.00
5595;BME280;1003;48.002;7.788;2024-02-26T09:31:32;97224.75;;;11.87;100.00
5595;BME280;1003;48.002;7.788;2024-02-26T09:34:00;97230.75;;;11.84;100.00
5595;BME280;1003;48.002;7.788;2024-02-26T09:36:27;97235.28;;;11.95;100.00
5595;BME280;1003;48.002;7.788;2024-02-26T09:38:54;97241.56;;;11.86;100.00
5595;BME280;1003;48.002;7.788;2024-02-26T09:41:21;97254.69;;;11.74;100.00
5595;BME280;1003;48.002;7.788;2024-02-26T09:43:56;97263.38;;;11.67;100.00
5595;BME280;1003;48.002;7.788;2024-02-26T09:46:23;97261.81;;;11.64;100.00
5595;BME280;1003;48.002;7.788;2024-02-26T09:48:52;97260.41;;;11.59;100.00
5595;BME280;1003;48.002;7.788;2024-02-26T09:51:22;97258.91;;;11.54;100.00
5595;BME280;1003;48.002;7.788;2024-02-26T09:53:52;97254.28;;;11.45;100.00
5595;BME280;1003;48.002;7.788;2024-02-26T09:56:19;97245.16;;;11.62;100.00
5595;BME280;1003;48.002;7.788;2024-02-26T09:58:52;97255.75;;;12.06;100.00
5595;BME280;1003;48.002;7.788;2024-02-26T10:01:20;97252.72;;;12.34;100.00
5595;BME280;1003;48.002;7.788;2024-02-26T10:03:55;97275.75;;;12.44;100.00
5595;BME280;1003;48.002;7.788;2024-02-26T10:06:24;97282.03;;;12.52;100.00
5595;BME280;1003;48.002;7.788;2024-02-26T10:08:54;97287.91;;;12.35;100.00
5595;BME280;1003;48.002;7.788;2024-02-26T10:11:23;97284.34;;;12.40;100.00
5595;BME280;1003;48.002;7.788;2024-02-26T10:13:52;97282.34;;;12.46;100.00
5595;BME280;1003;48.002;7.788;2024-02-26T10:16:20;97282.50;;;12.43;100.00
5595;BME280;1003;48.002;7.788;2024-02-26T10:18:50;97286.56;;;12.46;100.00
5595;BME280;1003;48.002;7.788;2024-02-26T10:21:21;97304.28;;;12.44;100.00
5595;BME280;1003;48.002;7.788;2024-02-26T10:23:50;97315.63;;;12.53;100.00
5595;BME280;1003;48.002;7.788;2024-02-26T10:26:19;97319.19;;;12.66;100.00
5595;BME280;1003;48.002;7.788;2024-02-26T10:28:47;97310.34;;;12.75;100.00
5595;BME280;1003;48.002;7.788;2024-02-26T10:31:17;97307.47;;;12.82;100.00
5595;BME280;1003;48.002;7.788;2024-02-26T10:33:46;97296.59;;;13.15;100.00
5595;BME280;1003;48.002;7.788;2024-02-26T10:36:16;97294.97;;;13.47;100.00
5595;BME280;1003;48.002;7.788;2024-02-26T10:38:43;97291.22;;;13.70;100.00
5595;BME280;1003;48.002;7.788;2024-02-26T10:41:14;97301.19;;;13.89;100.00
5595;BME280;1003;48.002;7.788;2024-02-26T10:43:42;97312.56;;;13.80;100.00
5595;BME280;1003;48.002;7.788;2024-02-26T10:46:10;97317.69;;;14.10;100.00
5595;BME280;1003;48.002;7.788;2024-02-26T10:48:38;97322.66;;;14.42;100.00
5595;BME280;1003;48.002;7.788;2024-02-26T10:51:06;97333.06;;;14.37;100.00
5595;BME280;1003;48.002;7.788;2024-02-26T10:53:36;97339.84;;;14.21;100.00
5595;BME280;1003;48.002;7.788;2024-02-26T10:56:05;97353.22;;;14.07;100.00
5595;BME280;1003;48.002;7.788;2024-02-26T10:58:32;97349.97;;;13.89;100.00
5595;BME280;1003;48.002;7.788;2024-02-26T11:01:00;97352.66;;;13.86;100.00
5595;BME280;1003;48.002;7.788;2024-02-26T11:03:29;97357.78;;;13.85;100.00
5595;BME280;1003;48.002;7.788;2024-02-26T11:06:03;97387.75;;;13.75;100.00
5595;BME280;1003;48.002;7.788;2024-02-26T11:08:32;97376.72;;;13.60;100.00
5595;BME280;1003;48.002;7.788;2024-02-26T11:11:00;97367.28;;;13.64;100.00
5595;BME280;1003;48.002;7.788;2024-02-26T11:13:28;97371.69;;;13.76;100.00
5595;BME280;1003;48.002;7.788;2024-02-26T11:15:57;97380.03;;;13.78;100.00
5595;BME280;1003;48.002;7.788;2024-02-26T11:18:27;97372.25;;;13.81;100.00
5595;BME280;1003;48.002;7.788;2024-02-26T11:20:55;97376.94;;;13.89;100.00
5595;BME280;1003;48.002;7.788;2024-02-26T11:23:24;97375.13;;;14.07;100.00
5595;BME280;1003;48.002;7.788;2024-02-26T11:26:02;97385.81;;;14.43;100.00
5595;BME280;1003;48.002;7.788;2024-02-26T11:28:33;97390.28;;;14.38;100.00
5595;BME280;1003;48.002;7.788;2024-02-26T11:31:02;97399.97;;;14.30;100.00
5595;BME280;1003;48.002;7.788;2024-02-26T11:33:30;97392.25;;;14.33;100.00
5595;BME280;1003;48.002;7.788;2024-02-26T11:35:58;97389.63;;;14.35;100.00
5595;BME280;1003;48.002;7.788;2024-02-26T11:38:27;97391.44;;;14.17;100.00
5595;BME280;1003;48.002;7.788;2024-02-26T11:40:54;97396.97;;;14.08;100.00
5595;BME280;1003;48.002;7.788;2024-02-26T11:43:57;97405.34;;;14.08;100.00
5595;BME280;1003;48.002;7.788;2024-02-26T11:46:31;97398.50;;;14.42;100.00
5595;BME280;1003;48.002;7.788;2024-02-26T11:49:02;97400.88;;;14.29;100.00
5595;BME280;1003;48.002;7.788;2024-02-26T11:51:34;97398.25;;;14.62;100.00
5595;BME280;1003;48.002;7.788;2024-02-26T11:54:03;97403.41;;;14.61;100.00
5595;BME280;1003;48.002;7.788;2024-02-26T11:56:33;97404.81;;;14.51;100.00
5595;BME280;1003;48.002;7.788;2024-02-26T11:59:03;97411.94;;;14.74;100.00
5595;BME280;1003;48.002;7.788;2024-02-26T12:01:46;97417.53;;;14.65;100.00
5595;BME280;1003;48.002;7.788;2024-02-26T12:04:18;97411.47;;;14.04;100.00
5595;BME280;1003;48.002;7.788;2024-02-26T12:06:48;97408.31;;;14.16;100.00
5595;BME280;1003;48.002;7.788;2024-02-26T12:09:35;97409.94;;;14.33;100.00
5595;BME280;1003;48.002;7.788;2024-02-26T12:12:04;97407.06;;;14.39;100.00
5595;BME280;1003;48.002;7.788;2024-02-26T12:14:34;97419.22;;;14.17;100.00
5595;BME280;1003;48.002;7.788;2024-02-26T12:17:03;97419.13;;;14.03;100.00
5595;BME280;1003;48.002;7.788;2024-02-26T12:19:33;97415.00;;;14.33;100.00
5595;BME280;1003;48.002;7.788;2024-02-26T12:22:01;97427.84;;;14.13;100.00
5595;BME280;1003;48.002;7.788;2024-02-26T12:24:27;97436.34;;;14.28;100.00
5595;BME280;1003;48.002;7.788;2024-02-26T12:26:56;97440.31;;;14.79;100.00
5595;BME280;1003;48.002;7.788;2024-02-26T12:29:23;97447.84;;;14.81;100.00
5595;BME280;1003;48.002;7.788;2024-02-26T12:31:51;97449.81;;;14.76;100.00
5595;BME280;1003;48.002;7.788;2024-02-26T12:34:18;97453.63;;;14.35;100.00
5595;BME280;1003;48.002;7.788;2024-02-26T12:36:45;97452.47;;;14.09;100.00
5595;BME280;1003;48.002;7.788;2024-02-26T12:39:12;97448.75;;;14.32;100.00
5595;BME280;1003;48.002;7.788;2024-02-26T12:41:39;97452.81;;;14.19;100.00
5595;BME280;1003;48.002;7.788;2024-02-26T12:44:09;97451.00;;;14.68;100.00
5595;BME280;1003;48.002;7.788;2024-02-26T12:46:36;97458.50;;;15.16;100.00
5595;BME280;1003;48.002;7.788;2024-02-26T12:49:03;97462.81;;;14.84;100.00
5595;BME280;1003;48.002;7.788;2024-02-26T12:51:30;97466.88;;;15.32;100.00
5595;BME280;1003;48.002;7.788;2024-02-26T12:53:58;97469.00;;;14.94;100.00
5595;BME280;1003;48.002;7.788;2024-02-26T12:56:27;97461.50;;;15.08;100.00
5595;BME280;1003;48.002;7.788;2024-02-26T12:58:55;97465.03;;;15.50;100.00
5595;BME280;1003;48.002;7.788;2024-02-26T13:01:25;97451.75;;;15.75;100.00
5595;BME280;1003;48.002;7.788;2024-02-26T13:03:53;97457.09;;;15.70;100.00
5595;BME280;1003;48.002;7.788;2024-02-26T13:06:20;97460.34;;;15.87;100.00
5595;BME280;1003;48.002;7.788;2024-02-26T13:08:49;97462.28;;;15.83;100.00
5595;BME280;1003;48.002;7.788;2024-02-26T13:11:16;97460.72;;;15.81;100.00
5595;BME280;1003;48.002;7.788;2024-02-26T13:13:48;97460.38;;;15.42;100.00
5595;BME280;1003;48.002;7.788;2024-02-26T13:16:16;97450.09;;;15.60;100.00
5595;BME280;1003;48.002;7.788;2024-02-26T13:18:44;97453.59;;;15.73;100.00
5595;BME280;1003;48.002;7.788;2024-02-26T13:21:14;97460.63;;;15.68;100.00